Time;durP1;ratioP1;P1;durP2;ratioP2;P2;SDS_P1;SDS_P2;PMS_P1;PMS_P2;Temp;Humidity;BMP_temperature;BMP_pressure;BME280_temperature;BME280_humidity;BME280_pressure;Samples;Min_cycle;Max_cycle;Signal;HPM_P1;HPM_P2
2022/11/13 00:02:10;;;;;;;35.42;22.30;;;5.70;99.90;;;;;;6187025;23;20024;-77
2022/11/13 00:04:36;;;;;;;32.88;23.27;;;5.70;99.90;;;;;;6160386;23;20017;-77
2022/11/13 00:07:01;;;;;;;34.05;23.77;;;5.80;99.90;;;;;;6160350;23;20021;-77
2022/11/13 00:09:27;;;;;;;35.08;23.77;;;5.90;99.90;;;;;;6160305;23;20021;-77
2022/11/13 00:11:53;;;;;;;36.35;24.83;;;5.90;99.90;;;;;;6160208;23;20393;-77
2022/11/13 00:14:18;;;;;;;42.53;27.27;;;5.90;99.90;;;;;;6159834;23;20040;-77
2022/11/13 00:16:44;;;;;;;42.45;26.17;;;6.00;99.90;;;;;;6160281;23;20021;-77
2022/11/13 00:19:10;;;;;;;39.55;26.60;;;6.00;99.90;;;;;;6160238;23;20013;-77
2022/11/13 00:21:35;;;;;;;38.47;25.48;;;6.00;99.90;;;;;;6160274;23;20070;-77
2022/11/13 00:24:01;;;;;;;39.42;25.92;;;6.00;99.90;;;;;;6160177;23;20095;-77
2022/11/13 00:26:29;;;;;;;40.22;25.63;;;6.00;99.90;;;;;;6160131;23;20021;-77
2022/11/13 00:28:56;;;;;;;40.08;25.95;;;6.10;99.90;;;;;;6159994;23;20449;-77
2022/11/13 00:31:22;;;;;;;38.38;25.80;;;6.20;99.90;;;;;;6160113;23;20020;-77
2022/11/13 00:33:48;;;;;;;38.35;25.20;;;6.10;99.90;;;;;;6160097;23;20019;-77
2022/11/13 00:36:17;;;;;;;42.47;26.40;;;6.10;99.90;;;;;;6159901;23;20025;-77
2022/11/13 00:38:43;;;;;;;36.33;24.65;;;6.10;99.90;;;;;;6159942;23;20457;-77
2022/11/13 00:41:08;;;;;;;40.80;26.35;;;6.20;99.90;;;;;;6186280;23;20021;-77
2022/11/13 00:43:34;;;;;;;39.60;26.92;;;6.20;99.90;;;;;;6159994;23;20021;-77
2022/11/13 00:46:00;;;;;;;35.97;25.55;;;6.20;99.90;;;;;;6159950;23;20096;-77
2022/11/13 00:48:26;;;;;;;41.78;27.15;;;6.20;99.90;;;;;;6159734;23;20449;-77
2022/11/13 00:50:52;;;;;;;35.67;25.65;;;6.30;99.90;;;;;;6159946;23;20128;-77
2022/11/13 00:53:18;;;;;;;38.88;25.38;;;6.30;99.90;;;;;;6186696;23;20350;-77
2022/11/13 00:55:44;;;;;;;37.20;25.25;;;6.30;99.90;;;;;;6159764;23;20468;-77
2022/11/13 00:58:14;;;;;;;39.53;27.23;;;6.30;99.90;;;;;;6159876;23;20024;-77
2022/11/13 01:00:42;;;;;;;38.00;25.52;;;6.30;99.90;;;;;;6159430;23;20025;-77
2022/11/13 01:03:08;;;;;;;41.50;25.67;;;6.40;99.90;;;;;;6186081;23;20479;-77
2022/11/13 01:05:36;;;;;;;42.10;25.55;;;6.30;99.90;;;;;;6186185;23;20020;-77
2022/11/13 01:08:02;;;;;;;38.13;25.42;;;6.30;99.90;;;;;;6186394;23;20013;-77
2022/11/13 01:10:27;;;;;;;41.90;25.50;;;6.30;99.90;;;;;;6159681;23;20021;-77
2022/11/13 01:12:53;;;;;;;41.92;26.50;;;6.40;99.90;;;;;;6159803;23;20040;-77
2022/11/13 01:15:19;;;;;;;41.60;26.30;;;6.40;99.90;;;;;;6159228;23;20013;-77
2022/11/13 01:17:44;;;;;;;38.85;26.13;;;6.30;99.90;;;;;;6159720;23;20021;-77
2022/11/13 01:20:11;;;;;;;39.58;25.42;;;6.40;99.90;;;;;;6159827;23;20016;-77
2022/11/13 01:22:36;;;;;;;33.78;24.08;;;6.40;99.90;;;;;;6159740;23;20103;-77
2022/11/13 01:25:02;;;;;;;33.53;24.25;;;6.40;99.90;;;;;;6186018;23;20051;-77
2022/11/13 01:27:28;;;;;;;37.72;24.75;;;6.40;99.90;;;;;;6185836;23;20519;-77
2022/11/13 01:29:54;;;;;;;39.55;25.63;;;6.40;99.90;;;;;;6186035;23;20025;-77
2022/11/13 01:32:19;;;;;;;40.05;27.15;;;6.40;99.90;;;;;;6186306;23;20009;-77
2022/11/13 01:34:45;;;;;;;38.97;26.58;;;6.50;99.90;;;;;;6186206;23;20017;-77
2022/11/13 01:37:11;;;;;;;38.53;25.88;;;6.50;99.90;;;;;;6186284;23;20095;-77
2022/11/13 01:39:37;;;;;;;39.22;26.55;;;6.50;99.90;;;;;;6186320;23;20043;-77
2022/11/13 01:42:02;;;;;;;38.17;27.08;;;6.50;99.90;;;;;;6159561;23;20024;-77
2022/11/13 01:44:53;;;;;;;40.58;27.85;;;6.50;99.90;;;;;;6185804;23;20087;-77
2022/11/13 01:47:20;;;;;;;38.47;24.65;;;6.50;99.90;;;;;;6186255;23;20013;-77
2022/11/13 01:49:47;;;;;;;38.70;25.40;;;6.50;99.90;;;;;;6185882;23;20504;-77
2022/11/13 01:52:20;;;;;;;38.55;26.50;;;6.60;99.90;;;;;;6159573;23;20021;-77
2022/11/13 01:54:48;;;;;;;;;;;6.60;99.90;;;;;;6186216;23;20334;-77
2022/11/13 01:57:15;;;;;;;35.17;24.50;;;6.60;99.90;;;;;;6186087;23;20014;-77
2022/11/13 01:59:47;;;;;;;36.83;26.50;;;6.60;99.90;;;;;;6185805;23;20319;-77
2022/11/13 02:02:13;;;;;;;36.85;26.05;;;6.50;99.90;;;;;;6186253;23;20069;-77
2022/11/13 02:04:38;;;;;;;40.28;25.73;;;6.60;99.90;;;;;;6186146;23;20037;-77
2022/11/13 02:07:11;;;;;;;34.90;25.20;;;6.60;99.90;;;;;;6159394;23;20017;-77
2022/11/13 02:09:41;;;;;;;36.85;26.08;;;6.60;99.90;;;;;;6159493;23;20017;-77
2022/11/13 02:12:10;;;;;;;38.85;25.00;;;6.50;99.90;;;;;;6188235;23;20107;-77
2022/11/13 02:14:43;;;;;;;44.85;26.88;;;6.60;99.90;;;;;;6187750;23;20020;-77
2022/11/13 02:17:13;;;;;;;36.45;26.10;;;6.60;99.90;;;;;;6188097;23;20028;-77
2022/11/13 02:19:44;;;;;;;37.75;25.98;;;6.50;99.90;;;;;;6161421;23;20056;-77
2022/11/13 02:22:23;;;;;;;36.65;24.88;;;6.50;99.90;;;;;;6187958;23;20013;-77
2022/11/13 02:24:49;;;;;;;33.75;24.58;;;6.50;99.90;;;;;;6161202;23;20016;-77
2022/11/13 02:27:35;;;;;;;37.88;24.70;;;6.50;99.90;;;;;;6161205;23;20021;-77
2022/11/13 02:30:31;;;;;;;35.22;24.40;;;6.50;99.90;;;;;;6161321;23;20067;-77
2022/11/13 02:32:58;;;;;;;34.95;24.77;;;6.50;99.90;;;;;;6157562;23;20029;-77
2022/11/13 02:35:30;;;;;;;40.90;25.70;;;6.50;99.90;;;;;;6187795;23;20013;-77
2022/11/13 02:37:58;;;;;;;42.50;27.13;;;6.50;99.90;;;;;;6161154;23;20017;-77
2022/11/13 02:40:25;;;;;;;40.60;26.75;;;6.50;99.90;;;;;;6161183;23;20025;-77
2022/11/13 02:42:51;;;;;;;42.33;27.35;;;6.60;99.90;;;;;;6161150;23;20025;-78
2022/11/13 02:45:17;;;;;;;42.38;26.77;;;6.60;99.90;;;;;;6161502;23;20349;-77
2022/11/13 02:47:42;;;;;;;42.08;27.95;;;6.60;99.90;;;;;;6161100;23;20013;-77
2022/11/13 02:50:09;;;;;;;40.13;26.92;;;6.70;99.90;;;;;;6187649;23;20112;-77
2022/11/13 02:52:35;;;;;;;41.97;26.33;;;6.70;99.90;;;;;;6187722;23;20013;-77
2022/11/13 02:55:01;;;;;;;41.78;28.20;;;6.80;99.90;;;;;;6187592;23;20061;-77
2022/11/13 02:57:27;;;;;;;39.65;26.60;;;6.80;99.90;;;;;;6187639;23;20013;-77
2022/11/13 02:59:52;;;;;;;44.00;28.90;;;6.80;99.90;;;;;;6187275;23;20366;-77
2022/11/13 03:02:18;;;;;;;39.90;26.98;;;6.90;99.90;;;;;;6187585;23;20017;-77
2022/11/13 03:04:45;;;;;;;42.90;28.55;;;6.90;99.90;;;;;;6187633;23;20059;-77
2022/11/13 03:07:12;;;;;;;44.25;28.58;;;6.90;99.90;;;;;;6187542;23;20017;-77
2022/11/13 03:09:38;;;;;;;44.00;27.02;;;7.00;99.90;;;;;;6160871;23;20021;-77
2022/11/13 03:12:04;;;;;;;42.90;28.63;;;7.00;99.90;;;;;;6160798;23;20445;-77
2022/11/13 03:14:30;;;;;;;44.00;28.48;;;7.00;99.90;;;;;;6187040;23;20013;-77
2022/11/13 03:16:55;;;;;;;43.05;28.25;;;7.00;99.90;;;;;;6187426;23;20075;-77
2022/11/13 03:19:21;;;;;;;42.28;28.77;;;7.00;99.90;;;;;;6187076;23;20021;-77
2022/11/13 03:21:47;;;;;;;42.17;27.88;;;7.00;99.90;;;;;;6187127;23;20020;-77
2022/11/13 03:24:12;;;;;;;39.63;28.15;;;7.00;99.90;;;;;;6160571;23;20020;-77
2022/11/13 03:26:38;;;;;;;41.50;25.45;;;7.00;99.90;;;;;;6187372;23;20072;-77
2022/11/13 03:29:03;;;;;;;38.38;26.67;;;7.10;99.90;;;;;;6186998;23;20371;-77
2022/11/13 03:31:29;;;;;;;38.03;25.02;;;7.00;99.90;;;;;;6187076;23;20465;-77
2022/11/13 03:33:55;;;;;;;39.20;25.13;;;7.00;99.90;;;;;;6187074;23;20028;-77
2022/11/13 03:36:20;;;;;;;34.33;24.33;;;7.00;99.90;;;;;;6187218;23;20013;-77
2022/11/13 03:38:46;;;;;;;38.65;25.38;;;7.00;99.90;;;;;;6160613;23;20017;-77
2022/11/13 03:41:15;;;;;;;34.58;23.45;;;7.10;99.90;;;;;;6186924;23;20027;-77
2022/11/13 03:43:41;;;;;;;36.25;25.23;;;7.00;99.90;;;;;;6187225;23;20017;-77
2022/11/13 03:46:06;;;;;;;35.10;24.10;;;7.00;99.90;;;;;;6160523;23;20024;-77
2022/11/13 03:48:32;;;;;;;34.58;22.48;;;7.10;99.90;;;;;;6187137;23;20013;-77
2022/11/13 03:50:59;;;;;;;34.10;23.98;;;7.00;99.90;;;;;;6187175;23;20024;-77
2022/11/13 03:53:24;;;;;;;33.20;23.40;;;7.10;99.90;;;;;;6186823;23;20025;-77
2022/11/13 03:55:50;;;;;;;32.90;23.70;;;7.00;99.90;;;;;;6186545;23;20021;-77
2022/11/13 03:58:16;;;;;;;32.55;23.40;;;7.10;99.90;;;;;;6186777;23;20454;-78
2022/11/13 04:00:44;;;;;;;34.67;22.92;;;7.10;99.90;;;;;;6186784;23;20021;-77
2022/11/13 04:03:10;;;;;;;34.15;23.23;;;7.10;99.90;;;;;;6186684;23;20017;-78
2022/11/13 04:05:36;;;;;;;33.35;23.90;;;7.10;99.90;;;;;;6186719;23;20021;-78
2022/11/13 04:08:01;;;;;;;34.30;22.25;;;7.10;99.90;;;;;;6186563;23;20100;-78
2022/11/13 04:10:27;;;;;;;33.67;23.17;;;7.10;99.90;;;;;;6160351;23;20028;-77
2022/11/13 04:12:53;;;;;;;37.08;23.60;;;7.10;99.90;;;;;;6186891;23;20017;-78
2022/11/13 04:15:18;;;;;;;33.85;22.85;;;7.10;99.90;;;;;;6186354;23;20342;-77
2022/11/13 04:17:44;;;;;;;37.65;22.95;;;7.10;99.90;;;;;;6186857;23;20013;-77
2022/11/13 04:20:10;;;;;;;28.83;21.13;;;7.10;99.90;;;;;;6160132;23;20021;-77
2022/11/13 04:22:36;;;;;;;36.40;23.08;;;7.20;99.90;;;;;;6186880;23;20017;-78
2022/11/13 04:25:02;;;;;;;32.35;21.58;;;7.20;99.90;;;;;;6160202;23;20100;-77
2022/11/13 04:27:28;;;;;;;33.63;21.80;;;7.20;99.90;;;;;;6160047;23;20072;-78
2022/11/13 04:29:53;;;;;;;32.28;21.00;;;7.20;99.90;;;;;;6186527;23;20377;-78
2022/11/13 04:32:19;;;;;;;32.80;21.70;;;7.20;99.90;;;;;;6160200;23;20024;-77
2022/11/13 04:34:45;;;;;;;31.90;21.95;;;7.30;99.90;;;;;;6159994;23;20017;-77
2022/11/13 04:37:10;;;;;;;31.80;21.90;;;7.20;99.90;;;;;;6186668;23;20017;-77
2022/11/13 04:39:36;;;;;;;28.38;19.77;;;7.30;99.90;;;;;;6186690;23;20139;-77
2022/11/13 04:44:46;;;;;;;30.40;20.50;;;7.30;99.90;;;;;;6159995;23;20071;-77
2022/11/13 04:47:11;;;;;;;33.00;20.80;;;7.30;99.90;;;;;;6159996;23;20096;-77
2022/11/13 04:49:37;;;;;;;30.20;19.88;;;7.30;99.90;;;;;;6186542;23;20009;-77
2022/11/13 04:52:03;;;;;;;28.60;20.00;;;7.30;99.90;;;;;;6159915;23;20020;-77
2022/11/13 04:54:29;;;;;;;27.92;19.83;;;7.30;99.90;;;;;;6159819;23;20422;-77
2022/11/13 04:56:54;;;;;;;29.38;19.90;;;7.40;99.90;;;;;;6186515;23;20453;-77
2022/11/13 04:59:20;;;;;;;29.42;20.73;;;7.40;99.90;;;;;;6186497;23;20075;-77
2022/11/13 05:01:46;;;;;;;29.83;20.17;;;7.40;99.90;;;;;;6186447;23;20013;-77
2022/11/13 05:04:13;;;;;;;30.55;20.65;;;7.40;99.90;;;;;;6159900;23;20052;-77
2022/11/13 05:06:39;;;;;;;28.33;20.20;;;7.40;99.90;;;;;;6186455;23;20013;-77
2022/11/13 05:09:04;;;;;;;26.10;19.30;;;7.40;99.90;;;;;;6159778;23;20025;-77
2022/11/13 05:11:30;;;;;;;29.08;18.33;;;7.40;99.90;;;;;;6159854;23;20017;-77
2022/11/13 05:13:56;;;;;;;26.65;18.60;;;7.40;99.90;;;;;;6186182;23;20055;-77
2022/11/13 05:16:21;;;;;;;30.90;18.55;;;7.40;99.90;;;;;;6186332;23;20032;-77
2022/11/13 05:18:47;;;;;;;30.25;19.48;;;7.40;99.90;;;;;;6186141;23;20021;-77
2022/11/13 05:21:13;;;;;;;26.13;18.52;;;7.40;99.90;;;;;;6159686;23;20028;-77
2022/11/13 05:23:39;;;;;;;28.13;18.65;;;7.40;99.90;;;;;;6186361;23;20021;-77
2022/11/13 05:26:07;;;;;;;25.35;18.13;;;7.40;99.90;;;;;;6159639;23;20034;-77
2022/11/13 05:28:33;;;;;;;28.77;18.35;;;7.40;99.90;;;;;;6186447;23;20024;-77
2022/11/13 05:31:03;;;;;;;25.35;17.70;;;7.30;99.90;;;;;;6186027;23;20021;-77
2022/11/13 05:33:29;;;;;;;27.25;18.83;;;7.40;99.90;;;;;;6186187;23;20032;-77
2022/11/13 05:36:03;;;;;;;23.40;17.02;;;7.40;99.90;;;;;;6159499;23;20021;-77
2022/11/13 05:38:29;;;;;;;28.00;18.08;;;7.40;99.90;;;;;;6159577;23;20021;-77
2022/11/13 05:41:04;;;;;;;24.77;18.58;;;7.30;99.90;;;;;;6185936;23;20382;-77
2022/11/13 05:43:30;;;;;;;26.73;18.23;;;7.40;99.90;;;;;;6186302;23;20088;-77
2022/11/13 05:46:04;;;;;;;24.83;18.52;;;7.30;99.90;;;;;;6160215;23;20044;-77
2022/11/13 05:48:30;;;;;;;27.20;19.15;;;7.40;99.90;;;;;;6187982;23;20024;-77
2022/11/13 05:51:05;;;;;;;26.95;18.52;;;7.30;99.90;;;;;;6187928;23;20458;-77
2022/11/13 05:53:34;;;;;;;25.60;17.80;;;7.30;99.90;;;;;;6161620;23;20017;-77
2022/11/13 05:56:06;;;;;;;30.17;18.38;;;7.30;99.90;;;;;;6187819;23;20021;-77
2022/11/13 05:58:32;;;;;;;29.65;19.15;;;7.30;99.90;;;;;;6161497;23;20445;-77
2022/11/13 06:01:12;;;;;;;24.45;17.60;;;7.30;99.90;;;;;;6161576;23;20092;-77
2022/11/13 06:03:39;;;;;;;25.30;17.25;;;7.30;99.90;;;;;;6188152;23;20021;-77
2022/11/13 06:06:07;;;;;;;29.20;18.02;;;7.20;99.90;;;;;;6161504;23;20087;-77
2022/11/13 06:08:33;;;;;;;27.83;17.75;;;7.30;99.90;;;;;;6188145;23;20017;-77
2022/11/13 06:11:04;;;;;;;25.48;18.17;;;7.20;99.90;;;;;;6187760;23;20524;-77
2022/11/13 06:13:30;;;;;;;29.45;18.75;;;7.20;99.90;;;;;;6185270;23;20013;-77
2022/11/13 06:16:01;;;;;;;26.30;17.55;;;7.20;99.90;;;;;;6158190;23;20028;-77
2022/11/13 06:18:27;;;;;;;24.33;17.90;;;7.20;99.90;;;;;;6158318;23;20020;-77
2022/11/13 06:20:53;;;;;;;25.70;18.70;;;7.20;99.90;;;;;;6158201;23;20022;-77
2022/11/13 06:23:19;;;;;;;26.30;19.27;;;7.10;99.90;;;;;;6131693;23;20029;-77
2022/11/13 06:25:44;;;;;;;27.27;18.98;;;7.10;99.90;;;;;;6131746;23;20013;-77
2022/11/13 06:28:10;;;;;;;26.63;18.42;;;7.10;99.90;;;;;;6158188;23;20041;-77
2022/11/13 06:30:36;;;;;;;25.85;17.83;;;7.10;99.90;;;;;;6157742;23;20021;-77
2022/11/13 06:33:01;;;;;;;25.40;17.63;;;7.00;99.90;;;;;;6158181;23;20014;-77
2022/11/13 06:35:27;;;;;;;25.50;18.70;;;7.00;99.90;;;;;;6157842;23;20026;-77
2022/11/13 06:37:56;;;;;;;31.40;17.75;;;7.00;99.90;;;;;;6130817;23;20085;-77
2022/11/13 06:40:21;;;;;;;29.73;18.50;;;6.90;99.90;;;;;;6130991;23;20018;-77
2022/11/13 06:42:47;;;;;;;27.25;17.73;;;7.00;99.90;;;;;;6131438;23;20805;-77
2022/11/13 06:45:12;;;;;;;24.05;18.05;;;7.00;99.90;;;;;;6157865;23;20021;-77
2022/11/13 06:47:38;;;;;;;27.15;18.55;;;6.90;99.90;;;;;;6131519;23;20021;-77
2022/11/13 06:50:05;;;;;;;25.70;17.83;;;6.90;99.90;;;;;;6157431;23;20524;-77
2022/11/13 06:52:31;;;;;;;24.02;17.75;;;6.90;99.90;;;;;;6131418;23;20323;-77
2022/11/13 06:54:57;;;;;;;23.92;17.38;;;6.90;99.90;;;;;;6157383;23;20024;-77
2022/11/13 06:57:22;;;;;;;25.70;17.15;;;6.80;99.90;;;;;;6156776;23;20021;-77
2022/11/13 06:59:48;;;;;;;25.48;16.45;;;6.80;99.90;;;;;;6131354;23;20100;-77
2022/11/13 07:02:13;;;;;;;24.95;17.38;;;6.80;99.90;;;;;;6131305;23;20018;-77
2022/11/13 07:04:39;;;;;;;23.67;17.42;;;6.80;99.90;;;;;;6157799;23;20017;-77
2022/11/13 07:07:05;;;;;;;26.35;16.75;;;6.70;99.90;;;;;;6157386;23;20080;-77
2022/11/13 07:09:30;;;;;;;25.45;16.95;;;6.80;99.90;;;;;;6131141;23;20446;-77
2022/11/13 07:11:56;;;;;;;24.25;17.20;;;6.70;99.90;;;;;;6157627;23;20076;-77
2022/11/13 07:14:22;;;;;;;22.80;16.63;;;6.70;99.90;;;;;;6157259;23;20493;-77
2022/11/13 07:16:47;;;;;;;23.70;16.10;;;6.70;99.90;;;;;;6157110;23;20469;-78
2022/11/13 07:19:13;;;;;;;24.10;17.25;;;6.70;99.90;;;;;;6157596;23;20559;-78
2022/11/13 07:21:39;;;;;;;24.80;17.60;;;6.70;99.90;;;;;;6131064;23;20018;-77
2022/11/13 07:24:04;;;;;;;24.48;16.95;;;6.70;99.90;;;;;;6157533;23;20094;-78
2022/11/13 07:26:30;;;;;;;24.00;15.57;;;6.60;99.90;;;;;;6157152;23;20049;-78
2022/11/13 07:28:56;;;;;;;22.90;16.55;;;6.70;99.90;;;;;;6131127;23;20013;-77
2022/11/13 07:31:21;;;;;;;24.90;16.60;;;6.70;99.90;;;;;;6142421;23;20022;-77
2022/11/13 07:33:48;;;;;;;23.40;16.52;;;6.70;99.90;;;;;;6130851;23;20018;-77
2022/11/13 07:36:14;;;;;;;25.30;17.13;;;6.70;99.90;;;;;;6130539;23;20017;-76
2022/11/13 07:38:40;;;;;;;24.95;17.25;;;6.70;99.90;;;;;;6157209;23;20097;-77
2022/11/13 07:41:06;;;;;;;22.67;16.15;;;6.70;99.90;;;;;;6130635;23;20029;-76
2022/11/13 07:43:32;;;;;;;23.17;15.90;;;6.70;99.90;;;;;;6156695;23;20017;-76
2022/11/13 07:45:58;;;;;;;25.88;17.75;;;6.70;99.90;;;;;;6156905;23;20017;-77
2022/11/13 07:48:26;;;;;;;23.55;15.93;;;6.70;99.90;;;;;;6156659;23;20346;-77
2022/11/13 07:50:52;;;;;;;26.33;16.60;;;6.70;99.90;;;;;;6130681;23;20029;-76
2022/11/13 07:53:19;;;;;;;22.55;16.42;;;6.80;99.90;;;;;;6156545;23;20469;-76
2022/11/13 07:55:45;;;;;;;25.55;17.00;;;6.80;99.90;;;;;;6130506;23;20025;-76
2022/11/13 07:58:12;;;;;;;23.02;16.00;;;6.80;99.90;;;;;;6156936;23;20013;-78
2022/11/13 08:00:38;;;;;;;23.38;16.75;;;6.90;99.90;;;;;;6156976;23;20024;-76
2022/11/13 08:03:12;;;;;;;22.60;16.20;;;6.90;99.90;;;;;;6156945;23;20093;-76
2022/11/13 08:05:38;;;;;;;25.42;17.27;;;7.00;99.90;;;;;;6156988;23;20022;-76
2022/11/13 08:08:04;;;;;;;23.50;16.00;;;7.10;99.90;;;;;;6156440;23;20044;-76
2022/11/13 08:10:30;;;;;;;25.05;16.95;;;7.10;99.90;;;;;;6130226;23;20009;-76
2022/11/13 08:13:01;;;;;;;22.80;15.77;;;7.20;99.90;;;;;;6156821;23;20028;-77
2022/11/13 08:15:28;;;;;;;26.33;16.83;;;7.30;99.90;;;;;;6156280;23;20339;-78
2022/11/13 08:17:59;;;;;;;24.35;15.88;;;7.30;99.90;;;;;;6130294;23;20024;-77
2022/11/13 08:20:26;;;;;;;23.40;16.92;;;7.40;99.90;;;;;;6156331;23;20450;-77
2022/11/13 08:22:55;;;;;;;21.92;15.80;;;7.50;99.90;;;;;;6156403;23;20026;-77
2022/11/13 08:25:20;;;;;;;23.55;16.02;;;7.50;99.90;;;;;;6130177;23;20021;-76
2022/11/13 08:27:46;;;;;;;21.05;15.18;;;7.70;99.90;;;;;;6130331;23;20028;-77
2022/11/13 08:30:12;;;;;;;24.77;16.35;;;7.70;99.90;;;;;;6156328;23;20009;-77
2022/11/13 08:32:38;;;;;;;22.95;15.73;;;7.80;99.90;;;;;;6129412;23;20406;-77
2022/11/13 08:35:04;;;;;;;21.27;15.70;;;7.90;99.90;;;;;;6128662;23;20018;-77
2022/11/13 08:37:32;;;;;;;21.33;15.50;;;8.00;99.90;;;;;;6155030;23;20017;-77
2022/11/13 08:39:57;;;;;;;22.50;15.90;;;8.10;99.90;;;;;;6129017;23;20009;-77
2022/11/13 08:42:23;;;;;;;22.35;15.63;;;8.20;99.90;;;;;;6128706;23;20075;-77
2022/11/13 08:44:49;;;;;;;21.77;15.15;;;8.30;99.90;;;;;;6154901;23;20446;-77
2022/11/13 08:47:14;;;;;;;21.88;15.18;;;8.40;99.90;;;;;;6154724;23;20021;-77
2022/11/13 08:49:40;;;;;;;23.00;16.35;;;8.50;99.90;;;;;;6154515;23;20021;-77
2022/11/13 08:52:05;;;;;;;21.40;15.88;;;8.50;99.90;;;;;;6128774;23;20475;-77
2022/11/13 08:54:31;;;;;;;24.27;15.27;;;8.60;99.90;;;;;;6154640;23;20342;-77
2022/11/13 08:56:57;;;;;;;23.40;16.15;;;8.70;99.90;;;;;;6154682;23;20454;-77
2022/11/13 08:59:22;;;;;;;22.77;15.77;;;8.80;99.90;;;;;;6128702;23;20025;-77
2022/11/13 09:01:49;;;;;;;21.95;15.50;;;8.90;99.90;;;;;;6154488;23;20026;-77
2022/11/13 09:04:14;;;;;;;20.45;15.52;;;9.00;99.90;;;;;;6154901;23;20024;-77
2022/11/13 09:06:40;;;;;;;23.33;16.10;;;9.10;99.90;;;;;;6155015;23;20013;-77
2022/11/13 09:09:06;;;;;;;22.50;15.55;;;9.30;99.90;;;;;;6128607;23;20025;-77
2022/11/13 09:11:32;;;;;;;22.13;14.02;;;9.30;99.90;;;;;;6128690;23;20021;-77
2022/11/13 09:13:58;;;;;;;23.15;15.63;;;9.40;99.90;;;;;;6154577;23;20473;-77
2022/11/13 09:16:24;;;;;;;20.70;15.23;;;9.50;99.90;;;;;;6154921;23;20018;-77
2022/11/13 09:18:51;;;;;;;23.10;14.73;;;9.70;99.90;;;;;;6154453;23;20061;-77
2022/11/13 09:21:17;;;;;;;20.95;15.35;;;9.80;99.90;;;;;;6154618;23;20018;-77
2022/11/13 09:23:42;;;;;;;19.25;14.13;;;10.00;99.90;;;;;;6154542;23;20018;-76
2022/11/13 09:26:08;;;;;;;18.88;14.45;;;10.00;99.90;;;;;;6154487;23;20026;-77
2022/11/13 09:28:34;;;;;;;17.85;13.23;;;10.10;99.90;;;;;;6154838;23;20021;-77
2022/11/13 09:31:04;;;;;;;17.00;13.23;;;10.20;99.90;;;;;;6128402;23;20055;-77
2022/11/13 09:33:30;;;;;;;16.95;12.82;;;10.10;99.90;;;;;;6154531;23;20101;-77
2022/11/13 09:35:55;;;;;;;18.90;13.90;;;10.20;99.90;;;;;;6154634;23;20053;-77
2022/11/13 09:38:21;;;;;;;18.92;13.88;;;10.30;99.90;;;;;;6154766;23;20438;-76
2022/11/13 09:40:46;;;;;;;18.48;14.48;;;10.40;99.90;;;;;;6154398;23;20022;-76
2022/11/13 09:43:25;;;;;;;22.48;14.50;;;10.60;99.90;;;;;;6154857;23;20017;-76
2022/11/13 09:45:54;;;;;;;17.75;13.82;;;10.60;99.90;;;;;;6128310;23;20025;-76
2022/11/13 09:48:34;;;;;;;18.67;14.05;;;10.80;99.90;;;;;;6128123;23;20025;-77
2022/11/13 09:51:15;;;;;;;19.63;14.88;;;10.80;99.90;;;;;;6128279;23;20048;-76
2022/11/13 09:53:41;;;;;;;19.60;14.20;;;11.00;99.90;;;;;;6128830;23;20342;-76
2022/11/13 09:56:34;;;;;;;19.05;13.88;;;11.10;99.90;;;;;;6129482;23;20018;-76
2022/11/13 09:59:25;;;;;;;20.20;13.73;;;11.20;99.90;;;;;;6156124;23;20052;-76
2022/11/13 10:02:09;;;;;;;18.65;13.30;;;11.30;99.90;;;;;;6156074;23;20021;-76
2022/11/13 10:05:09;;;;;;;19.15;13.80;;;11.30;99.90;;;;;;6129625;23;20092;-77
2022/11/13 10:07:58;;;;;;;18.10;13.10;;;11.40;99.90;;;;;;6129576;23;20025;-76
2022/11/13 10:10:34;;;;;;;19.83;13.70;;;11.40;99.90;;;;;;6156142;23;20021;-76
2022/11/13 10:13:02;;;;;;;19.38;13.52;;;11.50;99.90;;;;;;6155892;23;20010;-77
2022/11/13 10:15:29;;;;;;;18.58;13.82;;;11.60;99.90;;;;;;6155627;23;20108;-77
2022/11/13 10:18:07;;;;;;;18.85;13.98;;;11.60;99.90;;;;;;6129846;23;20021;-76
2022/11/13 10:20:42;;;;;;;18.23;13.23;;;11.80;99.90;;;;;;6130665;23;20030;-76
2022/11/13 10:23:20;;;;;;;18.35;14.02;;;11.90;99.90;;;;;;6156168;23;20068;-76
2022/11/13 10:25:47;;;;;;;18.77;14.55;;;12.00;99.90;;;;;;6155843;23;20333;-76
2022/11/13 10:28:22;;;;;;;19.95;14.50;;;12.10;99.90;;;;;;6155581;23;20346;-76
2022/11/13 10:30:48;;;;;;;18.33;14.10;;;12.30;99.90;;;;;;6129748;23;20017;-77
2022/11/13 10:33:18;;;;;;;18.75;14.95;;;12.40;99.90;;;;;;6157837;23;20013;-76
2022/11/13 10:36:02;;;;;;;20.95;14.45;;;12.50;99.90;;;;;;6157677;23;20456;-76
2022/11/13 10:38:49;;;;;;;16.73;13.95;;;12.60;99.90;;;;;;6157863;23;20024;-76
2022/11/13 10:41:19;;;;;;;20.80;14.98;;;12.70;99.90;;;;;;6131691;23;20049;-76
2022/11/13 10:44:16;;;;;;;26.30;14.23;;;12.70;99.90;;;;;;6131501;23;20048;-76
2022/11/13 10:46:42;;;;;;;18.88;14.55;;;12.70;99.90;;;;;;6157988;23;20092;-76
2022/11/13 10:49:18;;;;;;;18.27;13.65;;;12.80;99.90;;;;;;6131511;23;20099;-76
2022/11/13 10:51:52;;;;;;;19.80;14.27;;;12.80;99.90;;;;;;6131556;23;20132;-76
2022/11/13 10:54:23;;;;;;;23.48;14.77;;;12.90;99.90;;;;;;6131498;23;20014;-76
2022/11/13 10:57:16;;;;;;;20.60;15.25;;;13.00;99.90;;;;;;6157615;23;20021;-77
2022/11/13 10:59:44;;;;;;;20.10;15.77;;;13.10;99.90;;;;;;6131411;23;20136;-77
2022/11/13 11:02:21;;;;;;;21.55;15.85;;;13.00;99.90;;;;;;6157197;23;20382;-77
2022/11/13 11:04:47;;;;;;;19.42;15.77;;;13.00;99.90;;;;;;6157424;23;20450;-77
2022/11/13 11:07:16;;;;;;;19.83;15.75;;;12.80;99.90;;;;;;6157518;23;20018;-76
2022/11/13 11:09:45;;;;;;;23.33;16.17;;;12.90;99.90;;;;;;6157239;23;20384;-76
2022/11/13 11:12:16;;;;;;;22.70;16.55;;;12.90;99.90;;;;;;6157396;23;20056;-77
2022/11/13 11:14:53;;;;;;;22.23;16.88;;;12.70;99.90;;;;;;6157340;23;20466;-77
2022/11/13 11:17:21;;;;;;;23.70;17.70;;;12.60;99.90;;;;;;6150764;23;20462;-77
2022/11/13 11:19:56;;;;;;;25.15;17.50;;;12.50;99.90;;;;;;6157192;23;20443;-77
2022/11/13 11:22:26;;;;;;;20.63;15.23;;;12.60;99.90;;;;;;6157645;23;20072;-77
2022/11/13 11:25:10;;;;;;;22.02;16.08;;;12.70;99.90;;;;;;6157548;23;20013;-77
2022/11/13 11:27:41;;;;;;;23.48;17.38;;;12.70;99.90;;;;;;6157593;23;20021;-77
2022/11/13 11:30:21;;;;;;;23.75;16.55;;;12.70;99.90;;;;;;6130928;23;20064;-77
2022/11/13 11:33:10;;;;;;;21.90;16.95;;;12.80;99.90;;;;;;6131103;23;20021;-77
2022/11/13 11:35:40;;;;;;;21.63;17.27;;;12.70;99.90;;;;;;6156837;23;20022;-77
2022/11/13 11:38:19;;;;;;;22.83;16.98;;;12.70;99.90;;;;;;6157448;23;20092;-77
2022/11/13 11:40:51;;;;;;;21.95;16.27;;;12.60;99.90;;;;;;6157463;23;20014;-76
2022/11/13 11:43:29;;;;;;;22.40;17.08;;;12.70;99.90;;;;;;6130693;23;20552;-77
2022/11/13 11:45:54;;;;;;;23.58;16.30;;;12.80;99.90;;;;;;6157396;23;20041;-76
2022/11/13 11:48:31;;;;;;;21.65;16.13;;;12.90;99.90;;;;;;6157274;23;20378;-77
2022/11/13 11:51:12;;;;;;;22.40;16.05;;;12.70;99.90;;;;;;6157185;23;20014;-77
2022/11/13 11:53:51;;;;;;;21.95;15.98;;;12.90;99.90;;;;;;6157016;23;20454;-77
2022/11/13 11:56:56;;;;;;;18.55;15.68;;;12.90;99.90;;;;;;6157183;23;20018;-76
2022/11/13 11:59:37;;;;;;;21.50;16.20;;;13.00;99.90;;;;;;6129953;23;20029;-76
2022/11/13 12:02:05;;;;;;;19.95;15.65;;;12.80;99.90;;;;;;6157136;23;20040;-76
2022/11/13 12:04:50;;;;;;;20.77;15.20;;;12.70;99.90;;;;;;6130565;23;20445;-76
2022/11/13 12:07:36;;;;;;;20.90;15.02;;;12.70;99.90;;;;;;6130827;23;20130;-76
2022/11/13 12:10:22;;;;;;;21.65;15.32;;;12.80;99.90;;;;;;6157226;23;20013;-76
2022/11/13 12:13:16;;;;;;;21.85;15.93;;;12.80;99.90;;;;;;6156530;23;20018;-76
2022/11/13 12:15:55;;;;;;;20.02;15.10;;;12.80;99.90;;;;;;6155782;23;20382;-76
2022/11/13 12:18:35;;;;;;;20.45;15.02;;;12.70;99.90;;;;;;6155271;23;20030;-76
2022/11/13 12:21:24;;;;;;;20.95;16.42;;;12.60;99.90;;;;;;6155670;23;20005;-77
2022/11/13 12:24:04;;;;;;;23.15;15.45;;;12.50;99.90;;;;;;6155737;23;20030;-76
2022/11/13 12:26:56;;;;;;;22.70;16.45;;;12.60;99.90;;;;;;6129257;23;20544;-76
2022/11/13 12:30:01;;;;;;;22.77;15.68;;;12.60;99.90;;;;;;6155505;23;20507;-76
2022/11/13 12:32:51;;;;;;;18.08;14.63;;;12.70;99.90;;;;;;6129307;23;20076;-76
2022/11/13 12:35:19;;;;;;;22.42;14.85;;;12.70;99.90;;;;;;6155488;23;20025;-76
2022/11/13 12:37:49;;;;;;;21.77;15.10;;;12.80;99.90;;;;;;6155054;23;20023;-76
2022/11/13 12:40:27;;;;;;;21.30;15.82;;;12.80;99.90;;;;;;6155442;23;20084;-76
2022/11/13 12:43:25;;;;;;;21.42;14.15;;;12.90;99.90;;;;;;6155414;23;20072;-76
2022/11/13 12:45:59;;;;;;;22.70;15.77;;;12.90;99.90;;;;;;6154329;23;20056;-76
2022/11/13 12:48:34;;;;;;;18.90;14.38;;;12.80;99.90;;;;;;6156800;23;20063;-77
2022/11/13 12:51:03;;;;;;;21.17;15.30;;;13.00;99.90;;;;;;6156511;23;20022;-77